Barahona, Dominican Republic
Current Conditions -  °F | °C
As of 9:00 PM on Tuesday 27 Jan 2015 (Local Time) from MDST Reporting Station
Light Rain Light Rain  
Wind Chill: 75°   Ceiling: 1600
Heat Index: 75°   Visibility: 4mi
Dew Point: 72°   Wind: 0mph
Humidity: 89%   Direction: NA
Pressure: 29.97"   Gusts: NA
Location:  18.21°N, 71.1°W
Report Text: MDST 280100Z 00000KT 6000 -RA BKN016 BKN300 24/22 Q1015
Loading
Personal Weather Stations






























Interactive Weather Map New forecast layout! Learn more

10-Day Weather Forecast

Advertisements
Track Severe Weather on mobile